sensor_id;sensor_type;location;lat;lon;timestamp;pressure;altitude;pressure_sealevel;temperature;humidity
72959;BME280;60008;50.826;6.896;2022-09-24T00:00:46;100730.56;;;12.54;86.96
72959;BME280;60008;50.826;6.896;2022-09-24T00:03:36;100723.41;;;12.54;87.50
72959;BME280;60008;50.826;6.896;2022-09-24T00:06:21;100730.03;;;12.59;89.64
72959;BME280;60008;50.826;6.896;2022-09-24T00:09:07;100728.75;;;12.54;89.96
72959;BME280;60008;50.826;6.896;2022-09-24T00:11:52;100728.88;;;12.53;88.58
72959;BME280;60008;50.826;6.896;2022-09-24T00:14:37;100727.56;;;12.57;89.36
72959;BME280;60008;50.826;6.896;2022-09-24T00:17:22;100720.13;;;12.52;87.09
72959;BME280;60008;50.826;6.896;2022-09-24T00:20:07;100723.91;;;12.58;89.22
72959;BME280;60008;50.826;6.896;2022-09-24T00:22:52;100726.06;;;12.54;89.69
72959;BME280;60008;50.826;6.896;2022-09-24T00:25:45;100724.28;;;12.47;88.83
72959;BME280;60008;50.826;6.896;2022-09-24T00:28:49;100721.97;;;12.44;88.76
72959;BME280;60008;50.826;6.896;2022-09-24T00:31:35;100719.31;;;12.44;89.77
72959;BME280;60008;50.826;6.896;2022-09-24T00:34:20;100715.97;;;12.42;88.48
72959;BME280;60008;50.826;6.896;2022-09-24T00:37:05;100722.47;;;12.39;90.25
72959;BME280;60008;50.826;6.896;2022-09-24T00:39:50;100725.66;;;12.35;89.17
72959;BME280;60008;50.826;6.896;2022-09-24T00:42:35;100719.84;;;12.31;90.91
72959;BME280;60008;50.826;6.896;2022-09-24T00:45:20;100721.25;;;12.19;88.95
72959;BME280;60008;50.826;6.896;2022-09-24T00:48:06;100714.25;;;12.18;89.81
72959;BME280;60008;50.826;6.896;2022-09-24T00:50:52;100716.44;;;12.15;90.49
72959;BME280;60008;50.826;6.896;2022-09-24T00:53:37;100722.75;;;12.14;90.00
72959;BME280;60008;50.826;6.896;2022-09-24T00:56:22;100720.63;;;12.09;92.43
72959;BME280;60008;50.826;6.896;2022-09-24T00:59:10;100718.94;;;12.08;92.15
72959;BME280;60008;50.826;6.896;2022-09-24T01:01:55;100710.47;;;12.05;92.53
72959;BME280;60008;50.826;6.896;2022-09-24T01:04:43;100714.31;;;12.02;91.49
72959;BME280;60008;50.826;6.896;2022-09-24T01:07:28;100710.81;;;12.02;91.79
72959;BME280;60008;50.826;6.896;2022-09-24T01:10:14;100709.34;;;11.99;92.77
72959;BME280;60008;50.826;6.896;2022-09-24T01:13:35;100704.03;;;11.91;92.61
72959;BME280;60008;50.826;6.896;2022-09-24T01:16:52;100702.22;;;11.91;94.28
72959;BME280;60008;50.826;6.896;2022-09-24T01:23:23;100690.63;;;11.84;93.31
72959;BME280;60008;50.826;6.896;2022-09-24T01:32:34;100683.66;;;11.83;92.58
72959;BME280;60008;50.826;6.896;2022-09-24T01:35:29;100682.16;;;11.89;92.79
72959;BME280;60008;50.826;6.896;2022-09-24T01:38:20;100688.75;;;11.93;93.21
72959;BME280;60008;50.826;6.896;2022-09-24T01:41:09;100686.47;;;11.90;93.13
72959;BME280;60008;50.826;6.896;2022-09-24T01:43:57;100687.47;;;11.89;92.86
72959;BME280;60008;50.826;6.896;2022-09-24T01:46:42;100677.50;;;11.83;92.67
72959;BME280;60008;50.826;6.896;2022-09-24T01:49:27;100678.34;;;11.83;93.74
72959;BME280;60008;50.826;6.896;2022-09-24T01:52:16;100681.66;;;11.85;94.64
72959;BME280;60008;50.826;6.896;2022-09-24T01:55:05;100679.84;;;11.86;93.94
72959;BME280;60008;50.826;6.896;2022-09-24T01:57:56;100678.50;;;11.90;93.29
72959;BME280;60008;50.826;6.896;2022-09-24T02:00:46;100672.81;;;11.93;93.68
72959;BME280;60008;50.826;6.896;2022-09-24T02:03:36;100683.09;;;11.96;91.83
72959;BME280;60008;50.826;6.896;2022-09-24T02:06:55;100670.81;;;12.03;92.36
72959;BME280;60008;50.826;6.896;2022-09-24T02:09:43;100669.66;;;12.06;92.47
72959;BME280;60008;50.826;6.896;2022-09-24T02:12:33;100667.47;;;12.09;91.90
72959;BME280;60008;50.826;6.896;2022-09-24T02:15:29;100659.03;;;12.06;90.99
72959;BME280;60008;50.826;6.896;2022-09-24T02:18:20;100650.41;;;12.04;92.72
72959;BME280;60008;50.826;6.896;2022-09-24T02:21:14;100655.03;;;12.02;92.34
72959;BME280;60008;50.826;6.896;2022-09-24T02:24:29;100656.22;;;11.99;93.43
72959;BME280;60008;50.826;6.896;2022-09-24T02:27:11;100655.41;;;11.90;93.92
72959;BME280;60008;50.826;6.896;2022-09-24T02:29:57;100650.81;;;11.84;93.23
72959;BME280;60008;50.826;6.896;2022-09-24T02:32:43;100645.81;;;11.81;93.15
72959;BME280;60008;50.826;6.896;2022-09-24T02:35:28;100646.50;;;11.75;93.62
72959;BME280;60008;50.826;6.896;2022-09-24T02:38:17;100635.72;;;11.69;93.64
72959;BME280;60008;50.826;6.896;2022-09-24T02:41:02;100638.38;;;11.69;94.93
72959;BME280;60008;50.826;6.896;2022-09-24T02:43:47;100637.69;;;11.67;94.54
72959;BME280;60008;50.826;6.896;2022-09-24T02:46:32;100628.75;;;11.68;95.62
72959;BME280;60008;50.826;6.896;2022-09-24T02:49:17;100630.56;;;11.67;95.63
72959;BME280;60008;50.826;6.896;2022-09-24T02:52:02;100635.22;;;11.65;95.95
72959;BME280;60008;50.826;6.896;2022-09-24T02:54:48;100634.53;;;11.63;95.65
72959;BME280;60008;50.826;6.896;2022-09-24T02:57:36;100631.09;;;11.55;95.38
72959;BME280;60008;50.826;6.896;2022-09-24T03:00:21;100634.75;;;11.54;95.75
72959;BME280;60008;50.826;6.896;2022-09-24T03:03:06;100632.59;;;11.57;96.01
72959;BME280;60008;50.826;6.896;2022-09-24T03:05:51;100638.22;;;11.54;96.18
72959;BME280;60008;50.826;6.896;2022-09-24T03:08:39;100636.91;;;11.50;96.75
72959;BME280;60008;50.826;6.896;2022-09-24T03:11:26;100647.03;;;11.47;96.76
72959;BME280;60008;50.826;6.896;2022-09-24T03:14:10;100646.38;;;11.45;97.28
72959;BME280;60008;50.826;6.896;2022-09-24T03:16:55;100649.53;;;11.40;97.71
72959;BME280;60008;50.826;6.896;2022-09-24T03:19:40;100639.91;;;11.39;97.22
72959;BME280;60008;50.826;6.896;2022-09-24T03:22:25;100644.72;;;11.44;97.54
72959;BME280;60008;50.826;6.896;2022-09-24T03:25:10;100640.59;;;11.41;97.01
72959;BME280;60008;50.826;6.896;2022-09-24T03:27:55;100633.94;;;11.37;97.38
72959;BME280;60008;50.826;6.896;2022-09-24T03:30:40;100635.09;;;11.43;98.55
72959;BME280;60008;50.826;6.896;2022-09-24T03:33:46;100642.88;;;11.44;97.98
72959;BME280;60008;50.826;6.896;2022-09-24T03:36:31;100633.44;;;11.42;95.94
72959;BME280;60008;50.826;6.896;2022-09-24T03:39:16;100630.78;;;11.33;97.21
72959;BME280;60008;50.826;6.896;2022-09-24T03:42:01;100628.16;;;11.25;96.94
72959;BME280;60008;50.826;6.896;2022-09-24T03:44:46;100629.63;;;11.28;97.90
72959;BME280;60008;50.826;6.896;2022-09-24T03:47:32;100622.03;;;11.33;98.29
72959;BME280;60008;50.826;6.896;2022-09-24T03:50:17;100625.97;;;11.37;97.37
72959;BME280;60008;50.826;6.896;2022-09-24T03:53:02;100619.19;;;11.43;96.02
72959;BME280;60008;50.826;6.896;2022-09-24T03:55:52;100625.97;;;11.45;95.37
72959;BME280;60008;50.826;6.896;2022-09-24T03:58:38;100623.97;;;11.39;95.04
72959;BME280;60008;50.826;6.896;2022-09-24T04:01:23;100624.00;;;11.31;94.18
72959;BME280;60008;50.826;6.896;2022-09-24T04:04:08;100619.84;;;11.28;95.19
72959;BME280;60008;50.826;6.896;2022-09-24T04:06:54;100620.88;;;11.27;94.26
72959;BME280;60008;50.826;6.896;2022-09-24T04:09:39;100614.41;;;11.14;94.86
72959;BME280;60008;50.826;6.896;2022-09-24T04:12:25;100608.91;;;11.23;95.56
72959;BME280;60008;50.826;6.896;2022-09-24T04:15:10;100600.47;;;11.20;94.42
72959;BME280;60008;50.826;6.896;2022-09-24T04:17:57;100598.00;;;11.18;95.24
72959;BME280;60008;50.826;6.896;2022-09-24T04:20:42;100596.16;;;11.19;94.66
72959;BME280;60008;50.826;6.896;2022-09-24T04:23:27;100597.81;;;11.20;96.51
72959;BME280;60008;50.826;6.896;2022-09-24T04:26:15;100608.78;;;11.17;96.68
72959;BME280;60008;50.826;6.896;2022-09-24T04:29:01;100601.63;;;11.17;96.25
72959;BME280;60008;50.826;6.896;2022-09-24T04:31:46;100595.84;;;11.14;96.67
72959;BME280;60008;50.826;6.896;2022-09-24T04:34:31;100598.00;;;11.18;96.89
72959;BME280;60008;50.826;6.896;2022-09-24T04:37:16;100589.03;;;11.27;96.79
72959;BME280;60008;50.826;6.896;2022-09-24T04:40:03;100588.84;;;11.29;96.15
72959;BME280;60008;50.826;6.896;2022-09-24T04:42:49;100586.19;;;11.29;96.97
72959;BME280;60008;50.826;6.896;2022-09-24T04:45:33;100593.16;;;11.38;96.74
72959;BME280;60008;50.826;6.896;2022-09-24T04:48:19;100585.34;;;11.36;96.05
72959;BME280;60008;50.826;6.896;2022-09-24T04:51:07;100583.88;;;11.34;95.76
72959;BME280;60008;50.826;6.896;2022-09-24T04:53:52;100585.38;;;11.28;95.65
72959;BME280;60008;50.826;6.896;2022-09-24T04:56:37;100577.25;;;11.30;96.87
72959;BME280;60008;50.826;6.896;2022-09-24T04:59:22;100589.03;;;11.35;96.93
72959;BME280;60008;50.826;6.896;2022-09-24T05:02:07;100591.34;;;11.39;97.54
72959;BME280;60008;50.826;6.896;2022-09-24T05:04:53;100594.31;;;11.35;97.19
72959;BME280;60008;50.826;6.896;2022-09-24T05:07:40;100591.69;;;11.27;98.25
72959;BME280;60008;50.826;6.896;2022-09-24T05:10:26;100593.84;;;11.16;96.99
72959;BME280;60008;50.826;6.896;2022-09-24T05:13:11;100591.69;;;11.19;98.78
72959;BME280;60008;50.826;6.896;2022-09-24T05:15:56;100590.38;;;11.15;99.34
72959;BME280;60008;50.826;6.896;2022-09-24T05:18:41;100582.41;;;11.15;98.19
72959;BME280;60008;50.826;6.896;2022-09-24T05:21:26;100588.38;;;11.17;97.97
72959;BME280;60008;50.826;6.896;2022-09-24T05:24:11;100591.03;;;11.17;98.10
72959;BME280;60008;50.826;6.896;2022-09-24T05:26:56;100595.34;;;11.10;98.39
72959;BME280;60008;50.826;6.896;2022-09-24T05:29:54;100589.06;;;11.11;97.94
72959;BME280;60008;50.826;6.896;2022-09-24T05:32:40;100586.41;;;11.19;99.08
72959;BME280;60008;50.826;6.896;2022-09-24T05:35:26;100595.66;;;11.23;99.82
72959;BME280;60008;50.826;6.896;2022-09-24T05:38:10;100594.50;;;11.26;98.23
72959;BME280;60008;50.826;6.896;2022-09-24T05:40:55;100593.66;;;11.25;98.19
72959;BME280;60008;50.826;6.896;2022-09-24T05:43:40;100592.34;;;11.21;98.80
72959;BME280;60008;50.826;6.896;2022-09-24T05:46:25;100602.13;;;11.21;98.81
72959;BME280;60008;50.826;6.896;2022-09-24T05:49:10;100601.81;;;11.24;98.01
72959;BME280;60008;50.826;6.896;2022-09-24T05:51:55;100605.28;;;11.24;97.89
72959;BME280;60008;50.826;6.896;2022-09-24T05:54:40;100603.94;;;11.28;98.34
72959;BME280;60008;50.826;6.896;2022-09-24T05:57:25;100599.63;;;11.35;97.19
72959;BME280;60008;50.826;6.896;2022-09-24T06:00:10;100605.91;;;11.43;98.18
72959;BME280;60008;50.826;6.896;2022-09-24T06:03:01;100597.94;;;11.43;97.07
72959;BME280;60008;50.826;6.896;2022-09-24T06:05:48;100609.53;;;11.42;97.73
72959;BME280;60008;50.826;6.896;2022-09-24T06:08:33;100607.06;;;11.40;98.19
72959;BME280;60008;50.826;6.896;2022-09-24T06:11:18;100607.91;;;11.41;98.37
72959;BME280;60008;50.826;6.896;2022-09-24T06:14:06;100608.03;;;11.47;98.06
72959;BME280;60008;50.826;6.896;2022-09-24T06:16:52;100614.19;;;11.48;97.38
72959;BME280;60008;50.826;6.896;2022-09-24T06:19:37;100602.72;;;11.47;97.54
72959;BME280;60008;50.826;6.896;2022-09-24T06:22:23;100607.06;;;11.48;96.44
72959;BME280;60008;50.826;6.896;2022-09-24T06:25:12;100611.50;;;11.56;96.92
72959;BME280;60008;50.826;6.896;2022-09-24T06:27:59;100616.47;;;11.59;95.61
72959;BME280;60008;50.826;6.896;2022-09-24T06:30:44;100619.69;;;11.46;94.27
72959;BME280;60008;50.826;6.896;2022-09-24T06:33:30;100622.78;;;11.58;95.07
72959;BME280;60008;50.826;6.896;2022-09-24T06:36:15;100626.44;;;11.57;95.55
72959;BME280;60008;50.826;6.896;2022-09-24T06:38:59;100629.59;;;11.60;95.01
72959;BME280;60008;50.826;6.896;2022-09-24T06:41:44;100630.75;;;11.58;92.73
72959;BME280;60008;50.826;6.896;2022-09-24T06:44:30;100631.91;;;11.55;92.61
72959;BME280;60008;50.826;6.896;2022-09-24T06:47:15;100627.94;;;11.51;94.15
72959;BME280;60008;50.826;6.896;2022-09-24T06:50:01;100636.03;;;11.58;95.17
72959;BME280;60008;50.826;6.896;2022-09-24T06:52:46;100643.00;;;11.67;94.37
72959;BME280;60008;50.826;6.896;2022-09-24T06:55:31;100643.00;;;11.75;93.33
72959;BME280;60008;50.826;6.896;2022-09-24T06:58:18;100643.00;;;11.75;92.52
72959;BME280;60008;50.826;6.896;2022-09-24T07:01:04;100646.28;;;11.85;92.61
72959;BME280;60008;50.826;6.896;2022-09-24T07:03:50;100642.50;;;11.87;91.62
72959;BME280;60008;50.826;6.896;2022-09-24T07:06:35;100640.31;;;11.91;92.65
72959;BME280;60008;50.826;6.896;2022-09-24T07:09:39;100639.09;;;12.02;93.78
72959;BME280;60008;50.826;6.896;2022-09-24T07:12:25;100637.81;;;11.98;90.80
72959;BME280;60008;50.826;6.896;2022-09-24T07:15:10;100641.81;;;11.85;92.54
72959;BME280;60008;50.826;6.896;2022-09-24T07:17:55;100640.50;;;11.89;93.21
72959;BME280;60008;50.826;6.896;2022-09-24T07:20:40;100640.94;;;12.01;92.62
72959;BME280;60008;50.826;6.896;2022-09-24T07:23:25;100637.03;;;12.20;91.11
72959;BME280;60008;50.826;6.896;2022-09-24T07:26:11;100637.13;;;12.04;91.29
72959;BME280;60008;50.826;6.896;2022-09-24T07:28:56;100639.38;;;12.45;90.55
72959;BME280;60008;50.826;6.896;2022-09-24T07:31:41;100639.91;;;12.72;91.07
72959;BME280;60008;50.826;6.896;2022-09-24T07:34:26;100639.38;;;12.99;88.85
72959;BME280;60008;50.826;6.896;2022-09-24T07:37:11;100641.94;;;13.15;86.61
72959;BME280;60008;50.826;6.896;2022-09-24T07:39:56;100638.59;;;13.13;85.16
72959;BME280;60008;50.826;6.896;2022-09-24T07:42:46;100647.25;;;13.15;84.83
72959;BME280;60008;50.826;6.896;2022-09-24T07:45:31;100645.13;;;13.02;86.37
72959;BME280;60008;50.826;6.896;2022-09-24T07:48:17;100649.47;;;13.03;85.83
72959;BME280;60008;50.826;6.896;2022-09-24T07:51:03;100652.88;;;13.35;85.08
72959;BME280;60008;50.826;6.896;2022-09-24T07:53:49;100649.84;;;13.23;85.02
72959;BME280;60008;50.826;6.896;2022-09-24T07:56:34;100653.06;;;13.33;84.80
72959;BME280;60008;50.826;6.896;2022-09-24T07:59:19;100651.47;;;13.01;86.17
72959;BME280;60008;50.826;6.896;2022-09-24T08:02:09;100656.22;;;13.14;86.38
72959;BME280;60008;50.826;6.896;2022-09-24T08:04:59;100657.25;;;13.05;86.35
72959;BME280;60008;50.826;6.896;2022-09-24T08:07:52;100656.41;;;13.13;85.69
72959;BME280;60008;50.826;6.896;2022-09-24T08:10:37;100659.09;;;13.04;85.83
72959;BME280;60008;50.826;6.896;2022-09-24T08:13:23;100668.47;;;13.23;85.29
72959;BME280;60008;50.826;6.896;2022-09-24T08:16:12;100665.94;;;13.44;86.45
72959;BME280;60008;50.826;6.896;2022-09-24T08:18:57;100659.06;;;13.50;85.61
72959;BME280;60008;50.826;6.896;2022-09-24T08:21:42;100652.38;;;13.68;87.15
72959;BME280;60008;50.826;6.896;2022-09-24T08:24:28;100661.91;;;13.48;88.01
72959;BME280;60008;50.826;6.896;2022-09-24T08:27:13;100661.53;;;13.51;85.52
72959;BME280;60008;50.826;6.896;2022-09-24T08:30:01;100663.00;;;13.54;86.90
72959;BME280;60008;50.826;6.896;2022-09-24T08:32:46;100660.47;;;13.75;88.14
72959;BME280;60008;50.826;6.896;2022-09-24T08:35:33;100662.66;;;14.01;89.04
72959;BME280;60008;50.826;6.896;2022-09-24T08:38:18;100656.69;;;14.13;86.68
72959;BME280;60008;50.826;6.896;2022-09-24T08:44:04;100658.13;;;14.16;83.87
72959;BME280;60008;50.826;6.896;2022-09-24T08:46:55;100663.41;;;14.09;87.29
72959;BME280;60008;50.826;6.896;2022-09-24T08:50:19;100660.91;;;14.22;88.25
72959;BME280;60008;50.826;6.896;2022-09-24T08:53:16;100667.09;;;14.38;85.48
72959;BME280;60008;50.826;6.896;2022-09-24T08:56:05;100665.22;;;14.38;84.50
72959;BME280;60008;50.826;6.896;2022-09-24T09:01:57;100655.88;;;14.13;85.20
72959;BME280;60008;50.826;6.896;2022-09-24T09:05:02;100656.69;;;14.43;83.01
72959;BME280;60008;50.826;6.896;2022-09-24T09:08:12;100662.38;;;14.75;82.12
72959;BME280;60008;50.826;6.896;2022-09-24T09:11:22;100663.72;;;15.07;81.23
72959;BME280;60008;50.826;6.896;2022-09-24T09:14:19;100661.75;;;16.46;76.54
72959;BME280;60008;50.826;6.896;2022-09-24T09:17:33;100656.59;;;15.63;77.64
72959;BME280;60008;50.826;6.896;2022-09-24T09:20:25;100654.41;;;15.73;78.83
72959;BME280;60008;50.826;6.896;2022-09-24T09:23:15;100662.50;;;15.10;80.32
72959;BME280;60008;50.826;6.896;2022-09-24T09:26:02;100667.84;;;15.86;79.16
72959;BME280;60008;50.826;6.896;2022-09-24T09:28:51;100662.16;;;15.68;79.58
72959;BME280;60008;50.826;6.896;2022-09-24T09:32:00;100663.41;;;16.00;78.60
72959;BME280;60008;50.826;6.896;2022-09-24T09:38:24;100677.44;;;16.08;76.07
72959;BME280;60008;50.826;6.896;2022-09-24T09:41:20;100675.06;;;16.27;75.64
72959;BME280;60008;50.826;6.896;2022-09-24T09:44:18;100679.84;;;15.69;77.98
72959;BME280;60008;50.826;6.896;2022-09-24T09:50:39;100670.47;;;15.52;78.92
72959;BME280;60008;50.826;6.896;2022-09-24T09:53:26;100671.53;;;15.58;78.27
72959;BME280;60008;50.826;6.896;2022-09-24T09:56:12;100669.38;;;15.68;80.35
72959;BME280;60008;50.826;6.896;2022-09-24T09:59:20;100674.81;;;15.53;81.13
72959;BME280;60008;50.826;6.896;2022-09-24T10:02:21;100669.63;;;15.79;82.22
72959;BME280;60008;50.826;6.896;2022-09-24T10:05:20;100676.06;;;15.36;81.74
72959;BME280;60008;50.826;6.896;2022-09-24T10:08:24;100674.88;;;15.17;82.49
72959;BME280;60008;50.826;6.896;2022-09-24T10:11:14;100674.63;;;15.33;83.95
72959;BME280;60008;50.826;6.896;2022-09-24T10:14:04;100677.19;;;15.20;83.96
72959;BME280;60008;50.826;6.896;2022-09-24T10:16:53;100672.03;;;15.19;83.15
72959;BME280;60008;50.826;6.896;2022-09-24T10:19:39;100666.94;;;15.24;83.80
72959;BME280;60008;50.826;6.896;2022-09-24T10:22:28;100655.53;;;15.36;84.00
72959;BME280;60008;50.826;6.896;2022-09-24T10:25:25;100653.91;;;15.35;83.61
72959;BME280;60008;50.826;6.896;2022-09-24T10:28:17;100658.72;;;15.46;83.11
72959;BME280;60008;50.826;6.896;2022-09-24T10:31:24;100659.38;;;15.48;84.02
72959;BME280;60008;50.826;6.896;2022-09-24T10:34:28;100659.56;;;15.47;83.05
72959;BME280;60008;50.826;6.896;2022-09-24T10:37:15;100657.75;;;15.33;82.81
72959;BME280;60008;50.826;6.896;2022-09-24T10:40:13;100661.13;;;15.41;81.74
72959;BME280;60008;50.826;6.896;2022-09-24T10:43:03;100659.41;;;15.34;81.02
72959;BME280;60008;50.826;6.896;2022-09-24T10:48:44;100651.44;;;15.62;83.34
72959;BME280;60008;50.826;6.896;2022-09-24T10:51:50;100646.34;;;15.67;80.76
72959;BME280;60008;50.826;6.896;2022-09-24T10:55:01;100650.81;;;15.38;81.37
72959;BME280;60008;50.826;6.896;2022-09-24T11:01:26;100646.28;;;15.60;81.09
72959;BME280;60008;50.826;6.896;2022-09-24T11:10:48;100640.78;;;16.02;78.51
72959;BME280;60008;50.826;6.896;2022-09-24T11:17:29;100640.34;;;15.92;78.84
72959;BME280;60008;50.826;6.896;2022-09-24T11:20:29;100636.06;;;15.98;79.11
72959;BME280;60008;50.826;6.896;2022-09-24T11:26:45;100637.13;;;16.10;79.78
72959;BME280;60008;50.826;6.896;2022-09-24T11:30:05;100637.53;;;16.07;78.34
72959;BME280;60008;50.826;6.896;2022-09-24T11:33:05;100636.06;;;15.98;78.68
72959;BME280;60008;50.826;6.896;2022-09-24T11:39:22;100630.31;;;16.07;79.52
72959;BME280;60008;50.826;6.896;2022-09-24T11:42:21;100627.69;;;16.14;78.65
72959;BME280;60008;50.826;6.896;2022-09-24T11:45:20;100632.59;;;16.11;78.81
72959;BME280;60008;50.826;6.896;2022-09-24T11:48:24;100634.44;;;15.69;79.25
72959;BME280;60008;50.826;6.896;2022-09-24T11:51:25;100626.03;;;15.72;79.32
72959;BME280;60008;50.826;6.896;2022-09-24T11:54:49;100628.63;;;15.59;79.67
72959;BME280;60008;50.826;6.896;2022-09-24T11:57:41;100630.59;;;15.78;79.35
72959;BME280;60008;50.826;6.896;2022-09-24T12:00:32;100624.09;;;15.94;78.46
72959;BME280;60008;50.826;6.896;2022-09-24T12:03:45;100617.00;;;16.14;76.47
72959;BME280;60008;50.826;6.896;2022-09-24T12:06:39;100623.59;;;16.18;75.54
72959;BME280;60008;50.826;6.896;2022-09-24T12:09:42;100618.94;;;16.40;75.11
72959;BME280;60008;50.826;6.896;2022-09-24T12:12:33;100619.16;;;16.45;76.12
72959;BME280;60008;50.826;6.896;2022-09-24T12:15:24;100613.88;;;16.11;75.69
72959;BME280;60008;50.826;6.896;2022-09-24T12:18:16;100618.63;;;16.08;75.87
72959;BME280;60008;50.826;6.896;2022-09-24T12:21:09;100610.81;;;16.20;74.41
72959;BME280;60008;50.826;6.896;2022-09-24T12:24:02;100615.59;;;16.25;75.64
72959;BME280;60008;50.826;6.896;2022-09-24T12:26:50;100615.16;;;16.21;73.68
72959;BME280;60008;50.826;6.896;2022-09-24T12:29:58;100612.53;;;16.28;74.94
72959;BME280;60008;50.826;6.896;2022-09-24T12:33:16;100617.00;;;16.21;73.76
72959;BME280;60008;50.826;6.896;2022-09-24T12:36:14;100614.13;;;16.16;75.07
72959;BME280;60008;50.826;6.896;2022-09-24T12:39:07;100611.16;;;15.97;74.90
72959;BME280;60008;50.826;6.896;2022-09-24T12:42:04;100618.53;;;15.95;75.13
72959;BME280;60008;50.826;6.896;2022-09-24T12:44:54;100618.97;;;15.92;76.25
72959;BME280;60008;50.826;6.896;2022-09-24T12:47:48;100611.56;;;15.94;79.43
72959;BME280;60008;50.826;6.896;2022-09-24T12:50:35;100605.00;;;16.03;79.01
72959;BME280;60008;50.826;6.896;2022-09-24T12:53:22;100606.44;;;15.99;77.86
72959;BME280;60008;50.826;6.896;2022-09-24T12:56:11;100616.69;;;15.89;76.93
72959;BME280;60008;50.826;6.896;2022-09-24T12:58:57;100612.97;;;15.90;76.91
72959;BME280;60008;50.826;6.896;2022-09-24T13:01:42;100609.44;;;15.83;81.16
72959;BME280;60008;50.826;6.896;2022-09-24T13:04:28;100617.19;;;15.72;81.04
72959;BME280;60008;50.826;6.896;2022-09-24T13:07:56;100604.56;;;15.59;79.58
72959;BME280;60008;50.826;6.896;2022-09-24T13:10:58;100606.19;;;15.54;79.87
72959;BME280;60008;50.826;6.896;2022-09-24T13:13:44;100605.34;;;15.53;81.79
72959;BME280;60008;50.826;6.896;2022-09-24T13:16:30;100602.22;;;15.77;88.14
72959;BME280;60008;50.826;6.896;2022-09-24T13:19:36;100597.47;;;15.73;85.33
72959;BME280;60008;50.826;6.896;2022-09-24T13:22:33;100596.25;;;15.82;88.32
72959;BME280;60008;50.826;6.896;2022-09-24T13:25:21;100601.59;;;15.82;84.23
72959;BME280;60008;50.826;6.896;2022-09-24T13:28:27;100599.41;;;15.58;81.13
72959;BME280;60008;50.826;6.896;2022-09-24T13:34:28;100602.38;;;15.69;81.92
72959;BME280;60008;50.826;6.896;2022-09-24T13:37:19;100606.53;;;15.78;82.31
72959;BME280;60008;50.826;6.896;2022-09-24T13:40:14;100602.31;;;15.63;80.20
72959;BME280;60008;50.826;6.896;2022-09-24T13:43:04;100604.03;;;15.70;83.80
72959;BME280;60008;50.826;6.896;2022-09-24T13:45:51;100600.53;;;15.70;81.91
72959;BME280;60008;50.826;6.896;2022-09-24T13:48:40;100598.47;;;15.65;82.11
72959;BME280;60008;50.826;6.896;2022-09-24T13:51:29;100599.63;;;15.56;80.91
72959;BME280;60008;50.826;6.896;2022-09-24T13:54:30;100608.84;;;15.54;80.64
72959;BME280;60008;50.826;6.896;2022-09-24T13:57:26;100602.75;;;15.60;79.82
72959;BME280;60008;50.826;6.896;2022-09-24T14:06:14;100596.41;;;15.74;83.89
72959;BME280;60008;50.826;6.896;2022-09-24T14:09:00;100597.25;;;15.74;83.99
72959;BME280;60008;50.826;6.896;2022-09-24T14:11:50;100601.94;;;15.66;85.97
72959;BME280;60008;50.826;6.896;2022-09-24T14:14:35;100607.63;;;15.56;89.30
72959;BME280;60008;50.826;6.896;2022-09-24T14:17:20;100598.69;;;15.42;80.24
72959;BME280;60008;50.826;6.896;2022-09-24T14:20:08;100587.78;;;15.44;80.35
72959;BME280;60008;50.826;6.896;2022-09-24T14:22:56;100599.16;;;15.46;82.20
72959;BME280;60008;50.826;6.896;2022-09-24T14:25:41;100594.63;;;15.46;86.02
72959;BME280;60008;50.826;6.896;2022-09-24T14:28:27;100591.28;;;15.44;83.41
72959;BME280;60008;50.826;6.896;2022-09-24T14:31:16;100588.00;;;15.42;81.88
72959;BME280;60008;50.826;6.896;2022-09-24T14:34:02;100591.94;;;15.46;81.91
72959;BME280;60008;50.826;6.896;2022-09-24T14:36:49;100588.88;;;15.49;85.91
72959;BME280;60008;50.826;6.896;2022-09-24T14:39:40;100581.25;;;15.46;83.69
72959;BME280;60008;50.826;6.896;2022-09-24T14:42:32;100588.78;;;15.36;88.58
72959;BME280;60008;50.826;6.896;2022-09-24T14:45:26;100590.59;;;15.29;87.99
72959;BME280;60008;50.826;6.896;2022-09-24T14:48:31;100588.31;;;15.26;90.44
72959;BME280;60008;50.826;6.896;2022-09-24T14:51:24;100589.31;;;15.25;93.01
72959;BME280;60008;50.826;6.896;2022-09-24T15:00:00;100588.47;;;15.25;85.59
72959;BME280;60008;50.826;6.896;2022-09-24T15:02:49;100597.47;;;15.17;93.47
72959;BME280;60008;50.826;6.896;2022-09-24T15:05:35;100595.91;;;15.02;92.10
72959;BME280;60008;50.826;6.896;2022-09-24T15:08:23;100594.31;;;15.07;91.59
72959;BME280;60008;50.826;6.896;2022-09-24T15:11:15;100592.22;;;15.03;92.07
72959;BME280;60008;50.826;6.896;2022-09-24T15:14:18;100595.69;;;15.03;91.33
72959;BME280;60008;50.826;6.896;2022-09-24T15:17:19;100603.91;;;15.02;91.30
72959;BME280;60008;50.826;6.896;2022-09-24T15:20:05;100600.63;;;15.00;92.66
72959;BME280;60008;50.826;6.896;2022-09-24T15:22:50;100599.78;;;14.99;90.19
72959;BME280;60008;50.826;6.896;2022-09-24T15:25:35;100601.25;;;15.02;92.26
72959;BME280;60008;50.826;6.896;2022-09-24T15:28:20;100600.63;;;15.00;94.26
72959;BME280;60008;50.826;6.896;2022-09-24T15:31:06;100600.56;;;14.93;92.57
72959;BME280;60008;50.826;6.896;2022-09-24T15:33:51;100602.00;;;14.96;95.23
72959;BME280;60008;50.826;6.896;2022-09-24T15:36:36;100597.78;;;14.80;94.12
72959;BME280;60008;50.826;6.896;2022-09-24T15:39:24;100596.19;;;14.85;95.79
72959;BME280;60008;50.826;6.896;2022-09-24T15:42:10;100591.44;;;14.81;94.32
72959;BME280;60008;50.826;6.896;2022-09-24T15:44:56;100590.34;;;14.75;98.08
72959;BME280;60008;50.826;6.896;2022-09-24T15:47:41;100590.66;;;14.66;97.78
72959;BME280;60008;50.826;6.896;2022-09-24T15:50:26;100592.50;;;14.65;98.39